< < Back
Terminal Aerodrome Forecast


Current Version              Previous Versions:   1  2  3  4  5  6  7  8  9  

Terminal Aerodrome Forecast

459
FTUS42 KFFC 230800 AAA
TAFMCN
TAF AMD
KMCN 230843Z 2309/2406 00000KT 6SM BR SKC
      TEMPO 2309/2311 4SM BR SKC
     FM231600 33004KT P6SM SKC
     FM240100 00000KT P6SM SCT250=



Latest METAR

890
SAUS80 KWBC 231700 RRA
MTRMCN
METAR KMCN 231653Z 00000KT 10SM CLR 19/06 A3010 RMK AO2 SLP192
T01890056


USA.gov is the U.S. government's official web portal to all federal, state and local government web resources and services.